createdAt,value
2019-06-08T00:02:22.995Z,77.61
2019-06-08T00:04:52.639Z,77.99
2019-06-08T00:07:23.093Z,77.43
2019-06-08T00:09:52.693Z,77.55
2019-06-08T00:12:23.276Z,77.79
2019-06-08T00:14:53.602Z,77.92
2019-06-08T00:17:35.747Z,77.05
2019-06-08T00:19:54.167Z,76.76
2019-06-08T00:22:23.981Z,75.63
2019-06-08T00:24:53.453Z,75.66
2019-06-08T00:27:23.365Z,76.50
2019-06-08T00:29:54.306Z,76.28
2019-06-08T00:32:24.525Z,76.26
2019-06-08T00:34:54.068Z,76.29
2019-06-08T00:37:23.540Z,76.27
2019-06-08T00:39:52.952Z,76.39
2019-06-08T00:42:23.327Z,77.16
2019-06-08T00:44:53.201Z,77.28
2019-06-08T00:47:22.720Z,76.98
2019-06-08T00:49:52.390Z,77.06
2019-06-08T00:52:23.192Z,77.36
2019-06-08T00:54:52.692Z,77.48
2019-06-08T00:57:22.159Z,77.12
2019-06-08T00:59:51.623Z,76.94
2019-06-08T01:02:22.452Z,76.43
2019-06-08T01:04:52.059Z,75.39
2019-06-08T01:07:22.068Z,75.39
2019-06-08T01:09:52.564Z,75.75
2019-06-08T01:12:22.579Z,76.44
2019-06-08T01:14:52.226Z,75.75
2019-06-08T01:17:22.987Z,75.85
2019-06-08T01:19:52.463Z,75.91
2019-06-08T01:22:23.605Z,75.09
2019-06-08T01:24:53.130Z,75.09
2019-06-08T01:27:23.830Z,75.25
2019-06-08T01:29:53.579Z,74.76
2019-06-08T01:32:24.235Z,74.50
2019-06-08T01:34:53.821Z,74.24
2019-06-08T01:37:23.362Z,74.93
2019-06-08T01:39:52.789Z,75.17
2019-06-08T01:42:23.395Z,74.96
2019-06-08T01:44:52.925Z,74.68
2019-06-08T01:47:22.360Z,74.17
2019-06-08T01:49:51.883Z,73.24
2019-06-08T01:52:22.508Z,73.84
2019-06-08T01:54:52.046Z,74.45
2019-06-08T01:57:21.479Z,74.04
2019-06-08T01:59:51.061Z,74.43
2019-06-08T02:02:20.874Z,73.80
2019-06-08T02:04:50.404Z,74.13
2019-06-08T02:07:19.981Z,74.43
2019-06-08T02:09:49.672Z,73.79
2019-06-08T02:12:19.413Z,73.73
2019-06-08T02:14:49.230Z,73.01
2019-06-08T02:17:18.733Z,72.97
2019-06-08T02:19:48.281Z,73.05
2019-06-08T02:22:18.710Z,73.48
2019-06-08T02:24:48.191Z,73.40
2019-06-08T02:27:17.622Z,73.07
2019-06-08T02:29:47.196Z,72.84
2019-06-08T02:32:17.015Z,72.68
2019-06-08T02:34:46.448Z,72.74
2019-06-08T02:37:16.213Z,72.68
2019-06-08T02:39:45.727Z,72.76
2019-06-08T02:42:15.206Z,72.66
2019-06-08T02:44:44.699Z,72.70
2019-06-08T02:47:16.435Z,72.49
2019-06-08T02:49:45.377Z,73.23
2019-06-08T02:52:15.543Z,73.20
2019-06-08T02:54:45.096Z,72.74
2019-06-08T02:57:18.065Z,72.89
2019-06-08T02:59:50.624Z,72.62
2019-06-08T03:02:22.029Z,72.65
2019-06-08T03:04:53.938Z,72.13
2019-06-08T03:07:24.062Z,72.45
2019-06-08T03:09:56.186Z,71.27
2019-06-08T03:12:28.000Z,70.97
2019-06-08T03:14:58.905Z,70.48
2019-06-08T03:17:28.565Z,70.52
2019-06-08T03:19:58.620Z,70.91
2019-06-08T03:22:28.625Z,70.25
2019-06-08T03:24:58.484Z,70.25
2019-06-08T03:27:28.900Z,69.76
2019-06-08T03:29:58.775Z,70.24
2019-06-08T03:32:28.409Z,69.65
2019-06-08T03:34:58.466Z,69.80
2019-06-08T03:37:28.869Z,69.89
2019-06-08T03:39:58.471Z,70.33
2019-06-08T03:42:28.447Z,69.42
2019-06-08T03:44:58.643Z,68.78
2019-06-08T03:47:28.560Z,69.37
2019-06-08T03:50:03.431Z,69.55
2019-06-08T03:52:33.241Z,69.87
2019-06-08T03:55:02.811Z,69.15
2019-06-08T03:57:32.306Z,68.86
2019-06-08T04:00:02.518Z,68.38
2019-06-08T04:02:31.980Z,68.85
2019-06-08T04:05:01.394Z,68.67
2019-06-08T04:07:31.016Z,68.65
2019-06-08T04:10:00.451Z,67.89
2019-06-08T04:12:30.034Z,67.88
2019-06-08T04:14:59.664Z,67.18
2019-06-08T04:17:29.085Z,67.50
2019-06-08T04:20:10.287Z,67.78
2019-06-08T04:22:29.923Z,67.40
2019-06-08T04:24:59.383Z,67.13
2019-06-08T04:27:28.898Z,67.18
2019-06-08T04:29:59.174Z,67.02
2019-06-08T04:32:29.122Z,67.51
2019-06-08T04:34:58.687Z,66.58
2019-06-08T04:37:29.000Z,67.76
2019-06-08T04:39:58.725Z,67.17
2019-06-08T04:42:28.766Z,67.29
2019-06-08T04:44:58.866Z,66.62
2019-06-08T04:47:28.740Z,66.83
2019-06-08T04:49:58.687Z,66.66
2019-06-08T04:52:31.122Z,66.19
2019-06-08T04:55:00.508Z,66.17
2019-06-08T04:57:29.968Z,66.21
2019-06-08T04:59:59.543Z,65.92
2019-06-08T05:02:29.038Z,64.31
2019-06-08T05:04:58.635Z,64.11
2019-06-08T05:07:28.756Z,63.53
2019-06-08T05:09:58.652Z,63.20
2019-06-08T05:12:28.652Z,63.46
2019-06-08T05:14:58.923Z,63.28
2019-06-08T05:17:28.749Z,63.45
2019-06-08T05:20:01.287Z,63.45
2019-06-08T05:22:30.864Z,63.22
2019-06-08T05:25:00.308Z,63.40
2019-06-08T05:27:29.790Z,63.21
2019-06-08T05:29:59.409Z,62.78
2019-06-08T05:32:30.272Z,61.57
2019-06-08T05:35:02.017Z,62.43
2019-06-08T05:37:33.108Z,61.91
2019-06-08T05:40:02.551Z,60.79
2019-06-08T05:42:32.040Z,60.16
2019-06-08T05:45:01.832Z,59.50
2019-06-08T05:47:31.323Z,59.77
2019-06-08T05:50:01.378Z,59.75
2019-06-08T05:52:30.866Z,59.64
2019-06-08T05:55:00.286Z,59.37
2019-06-08T05:57:29.750Z,58.43
2019-06-08T05:59:59.482Z,58.79
2019-06-08T06:02:28.913Z,58.29
2019-06-08T06:04:58.964Z,57.79
2019-06-08T06:07:28.962Z,57.94
2019-06-08T06:09:58.983Z,57.40
2019-06-08T06:12:28.957Z,57.18
2019-06-08T06:15:00.519Z,57.02
2019-06-08T06:17:29.977Z,55.62
2019-06-08T06:19:59.480Z,54.45
2019-06-08T06:22:29.046Z,53.59
2019-06-08T06:24:59.015Z,52.02
2019-06-08T06:27:29.007Z,52.34
2019-06-08T06:29:59.076Z,52.37
2019-06-08T06:32:28.906Z,52.70
2019-06-08T06:34:58.972Z,52.07
2019-06-08T06:37:29.081Z,51.38
2019-06-08T06:39:59.139Z,50.70
2019-06-08T06:42:29.040Z,50.19
2019-06-08T06:44:59.301Z,49.28
2019-06-08T06:47:28.943Z,48.89
2019-06-08T06:49:59.025Z,49.81
2019-06-08T06:52:29.046Z,49.51
2019-06-08T06:54:59.119Z,49.78
2019-06-08T06:57:29.222Z,46.46
2019-06-08T06:59:59.869Z,43.02
2019-06-08T07:02:29.930Z,41.40
2019-06-08T07:04:59.380Z,39.26
2019-06-08T07:07:29.465Z,37.90
2019-06-08T07:09:59.249Z,36.33
2019-06-08T07:12:29.102Z,36.08
2019-06-08T07:14:59.371Z,35.60
2019-06-08T07:17:29.496Z,34.33
2019-06-08T07:19:59.055Z,33.22
2019-06-08T07:22:29.332Z,31.91
2019-06-08T07:24:59.217Z,30.62
2019-06-08T07:27:29.115Z,30.87
2019-06-08T07:29:59.227Z,29.72
2019-06-08T07:32:29.151Z,29.72
2019-06-08T07:34:59.407Z,30.64
2019-06-08T07:37:29.919Z,28.75
2019-06-08T07:40:00.207Z,28.87
2019-06-08T07:42:29.798Z,28.37
2019-06-08T07:45:00.455Z,28.66
2019-06-08T07:47:30.161Z,29.59
2019-06-08T07:49:59.716Z,31.64
2019-06-08T07:52:31.084Z,33.78
2019-06-08T07:55:00.529Z,35.12
2019-06-08T07:57:30.017Z,36.54
2019-06-08T08:00:00.155Z,37.28
2019-06-08T08:02:29.816Z,38.81
2019-06-08T08:04:59.259Z,39.42
2019-06-08T08:07:29.274Z,40.37
2019-06-08T08:09:59.160Z,40.42
2019-06-08T08:12:29.551Z,40.18
2019-06-08T08:14:59.807Z,40.97
2019-06-08T08:17:29.189Z,41.31
2019-06-08T08:19:59.447Z,42.27
2019-06-08T08:22:29.687Z,43.32
2019-06-08T08:25:04.179Z,42.69
2019-06-08T08:27:30.457Z,43.11
2019-06-08T08:30:01.799Z,42.91
2019-06-08T08:32:31.370Z,43.27
2019-06-08T08:35:02.828Z,43.19
2019-06-08T08:37:32.024Z,41.78
2019-06-08T08:40:01.705Z,41.39
2019-06-08T08:42:31.120Z,42.46
2019-06-08T08:45:04.713Z,42.46
2019-06-08T08:47:32.184Z,42.71
2019-06-08T08:50:02.215Z,43.58
2019-06-08T08:52:37.209Z,42.73
2019-06-08T08:55:03.211Z,42.67
2019-06-08T08:57:32.722Z,42.96
2019-06-08T09:00:05.044Z,42.96
2019-06-08T09:02:33.576Z,43.28
2019-06-08T09:05:03.911Z,42.06
2019-06-08T09:07:34.191Z,41.89
2019-06-08T09:10:04.176Z,41.18
2019-06-08T09:12:33.707Z,41.37
2019-06-08T09:15:03.942Z,41.67
2019-06-08T09:17:34.064Z,40.24
2019-06-08T09:20:03.974Z,38.70
2019-06-08T09:22:47.166Z,38.81
2019-06-08T09:25:05.600Z,38.55
2019-06-08T09:27:35.142Z,38.17
2019-06-08T09:30:08.144Z,38.88
2019-06-08T09:32:38.263Z,40.04
2019-06-08T09:35:09.340Z,39.26
2019-06-08T09:37:39.257Z,39.27
2019-06-08T09:40:09.010Z,39.52
2019-06-08T09:42:38.518Z,39.46
2019-06-08T09:45:09.731Z,40.19
2019-06-08T09:47:39.299Z,40.18
2019-06-08T09:50:10.109Z,40.12
2019-06-08T09:52:41.344Z,39.37
2019-06-08T09:55:11.842Z,39.35
2019-06-08T09:57:41.396Z,39.92
2019-06-08T10:00:17.989Z,38.70
2019-06-08T10:02:43.173Z,38.51
2019-06-08T10:05:12.971Z,38.39
2019-06-08T10:07:42.588Z,37.88
2019-06-08T10:10:12.370Z,37.90
2019-06-08T10:12:41.869Z,38.78
2019-06-08T10:15:11.842Z,39.67
2019-06-08T10:17:41.668Z,39.76
2019-06-08T10:20:11.977Z,39.74
2019-06-08T10:22:42.631Z,40.17
2019-06-08T10:25:12.093Z,40.13
2019-06-08T10:27:41.711Z,40.55
2019-06-08T10:30:12.620Z,38.97
2019-06-08T10:32:47.992Z,38.96
2019-06-08T10:35:18.459Z,39.47
2019-06-08T10:37:51.226Z,40.89
2019-06-08T10:40:22.283Z,40.25
2019-06-08T10:42:54.639Z,40.80
2019-06-08T10:45:28.442Z,40.68
2019-06-08T10:48:01.028Z,40.39
2019-06-08T10:50:30.879Z,40.09
2019-06-08T10:53:03.824Z,41.14
2019-06-08T10:55:32.108Z,40.87
2019-06-08T10:58:02.387Z,40.99
2019-06-08T11:00:32.435Z,40.43
2019-06-08T11:03:03.402Z,40.81
2019-06-08T11:05:33.149Z,40.47
2019-06-08T11:08:04.536Z,40.85
2019-06-08T11:10:34.466Z,40.62
2019-06-08T11:13:06.843Z,41.04
2019-06-08T11:15:37.347Z,40.80
2019-06-08T11:18:13.226Z,39.76
2019-06-08T11:20:42.780Z,40.26
2019-06-08T11:23:12.803Z,40.24
2019-06-08T11:25:42.319Z,40.15
2019-06-08T11:28:14.948Z,39.96
2019-06-08T11:30:47.956Z,40.62
2019-06-08T11:33:16.651Z,40.71
2019-06-08T11:35:46.128Z,40.80
2019-06-08T11:38:17.529Z,40.91
2019-06-08T11:40:47.842Z,40.60
2019-06-08T11:43:18.352Z,40.77
2019-06-08T11:45:48.201Z,40.76
2019-06-08T11:48:18.305Z,39.57
2019-06-08T11:50:49.023Z,38.90
2019-06-08T11:53:19.121Z,39.20
2019-06-08T11:55:51.105Z,39.29
2019-06-08T11:58:23.025Z,39.30
2019-06-08T12:01:01.827Z,39.62
2019-06-08T12:03:30.683Z,39.90
2019-06-08T12:06:00.508Z,39.85
2019-06-08T12:08:30.569Z,40.05
2019-06-08T12:11:01.995Z,39.49
2019-06-08T12:13:31.515Z,39.87
2019-06-08T12:16:01.287Z,40.45
2019-06-08T12:18:30.733Z,40.69
2019-06-08T12:21:01.486Z,41.01
2019-06-08T12:23:32.207Z,40.92
2019-06-08T12:26:01.681Z,41.05
2019-06-08T12:28:31.739Z,40.25
2019-06-08T12:31:01.390Z,40.33
2019-06-08T12:33:31.588Z,40.21
2019-06-08T12:36:01.498Z,40.20
2019-06-08T12:38:34.267Z,40.11
2019-06-08T12:41:02.133Z,39.17
2019-06-08T12:43:31.594Z,39.61
2019-06-08T12:46:01.347Z,39.27
2019-06-08T12:48:30.829Z,39.09
2019-06-08T12:51:00.364Z,38.12
2019-06-08T12:53:29.795Z,38.17
2019-06-08T12:55:59.720Z,38.08
2019-06-08T12:58:29.615Z,38.40
2019-06-08T13:00:59.940Z,38.69
2019-06-08T13:03:29.955Z,39.20
2019-06-08T13:05:59.627Z,39.15
2019-06-08T13:08:29.771Z,39.07
2019-06-08T13:11:00.351Z,38.82
2019-06-08T13:13:29.985Z,38.12
2019-06-08T13:15:59.755Z,38.14
2019-06-08T13:18:29.758Z,37.79
2019-06-08T13:21:13.158Z,37.98
2019-06-08T13:23:31.474Z,38.46
2019-06-08T13:26:01.102Z,38.00
2019-06-08T13:28:30.629Z,37.39
2019-06-08T13:31:00.231Z,37.57
2019-06-08T13:33:29.715Z,36.56
2019-06-08T13:35:59.796Z,37.46
2019-06-08T13:38:29.823Z,37.42
2019-06-08T13:41:00.300Z,38.00
2019-06-08T13:43:29.886Z,38.04
2019-06-08T13:46:00.214Z,37.29
2019-06-08T13:48:29.814Z,37.85
2019-06-08T13:50:59.842Z,38.38
2019-06-08T13:53:31.893Z,38.08
2019-06-08T13:56:00.892Z,38.10
2019-06-08T13:58:33.454Z,38.77
2019-06-08T14:01:02.340Z,39.25
2019-06-08T14:03:32.481Z,39.27
2019-06-08T14:06:02.178Z,39.65
2019-06-08T14:08:33.005Z,39.57
2019-06-08T14:11:02.665Z,39.57
2019-06-08T14:13:34.367Z,39.60
2019-06-08T14:16:03.824Z,39.69
2019-06-08T14:18:34.276Z,39.74
2019-06-08T14:21:04.040Z,39.83
2019-06-08T14:23:33.811Z,39.97
2019-06-08T14:26:03.263Z,39.64
2019-06-08T14:28:32.932Z,39.45
2019-06-08T14:31:02.555Z,39.45
2019-06-08T14:33:33.806Z,39.62
2019-06-08T14:36:03.307Z,39.46
2019-06-08T14:38:38.525Z,39.67
2019-06-08T14:41:04.417Z,39.70
2019-06-08T14:43:34.056Z,39.83
2019-06-08T14:46:03.600Z,39.51
2019-06-08T14:48:33.975Z,39.43
2019-06-08T14:51:03.942Z,38.96
2019-06-08T14:53:33.471Z,38.85
2019-06-08T14:56:08.310Z,38.77
2019-06-08T14:58:35.145Z,38.66
2019-06-08T15:01:05.166Z,38.80
2019-06-08T15:03:37.720Z,38.16
2019-06-08T15:06:07.938Z,38.02
2019-06-08T15:08:38.202Z,37.98
2019-06-08T15:11:08.244Z,38.07
2019-06-08T15:13:40.565Z,38.40
2019-06-08T15:16:10.024Z,37.50
2019-06-08T15:18:39.640Z,37.60
2019-06-08T15:21:09.141Z,37.91
2019-06-08T15:23:38.771Z,37.92
2019-06-08T15:26:20.435Z,38.51
2019-06-08T15:28:39.499Z,38.92
2019-06-08T15:31:09.016Z,38.58
2019-06-08T15:33:38.512Z,38.84
2019-06-08T15:36:08.627Z,38.39
2019-06-08T15:38:38.846Z,38.38
2019-06-08T15:41:08.802Z,38.42
2019-06-08T15:43:40.631Z,38.44
2019-06-08T15:46:09.641Z,38.29
2019-06-08T15:48:39.058Z,38.02
2019-06-08T15:51:08.549Z,37.98
2019-06-08T15:53:40.374Z,37.81
2019-06-08T15:56:09.174Z,38.00
2019-06-08T15:58:40.486Z,38.30
2019-06-08T16:01:10.434Z,38.73
2019-06-08T16:03:39.921Z,37.68
2019-06-08T16:06:09.405Z,37.94
2019-06-08T16:08:38.887Z,38.44
2019-06-08T16:11:08.317Z,38.01
2019-06-08T16:13:38.181Z,38.40
2019-06-08T16:16:07.665Z,38.59
2019-06-08T16:18:37.132Z,38.69
2019-06-08T16:21:06.563Z,39.14
2019-06-08T16:23:36.324Z,38.89
2019-06-08T16:26:05.753Z,39.10
2019-06-08T16:28:36.330Z,38.62
2019-06-08T16:31:05.876Z,38.37
2019-06-08T16:33:35.711Z,38.26
2019-06-08T16:36:05.396Z,38.62
2019-06-08T16:38:36.277Z,38.70
2019-06-08T16:41:07.568Z,38.43
2019-06-08T16:43:37.070Z,38.89
2019-06-08T16:46:06.629Z,38.96
2019-06-08T16:48:36.301Z,39.31
2019-06-08T16:51:05.767Z,39.56
2019-06-08T16:53:35.906Z,39.25
2019-06-08T16:56:05.486Z,39.33
2019-06-08T16:58:36.112Z,39.26
2019-06-08T17:01:06.029Z,39.56
2019-06-08T17:03:35.425Z,39.88
2019-06-08T17:06:04.910Z,39.29
2019-06-08T17:08:37.583Z,40.27
2019-06-08T17:11:05.515Z,40.66
2019-06-08T17:13:36.060Z,41.44
2019-06-08T17:16:06.390Z,41.43
2019-06-08T17:18:36.271Z,41.30
2019-06-08T17:21:06.000Z,41.58
2019-06-08T17:23:36.528Z,41.75
2019-06-08T17:26:06.008Z,41.40
2019-06-08T17:28:39.104Z,42.16
2019-06-08T17:31:09.760Z,42.47
2019-06-08T17:33:39.428Z,42.11
2019-06-08T17:36:09.337Z,41.94
2019-06-08T17:38:39.512Z,41.48
2019-06-08T17:41:09.018Z,40.99
2019-06-08T17:43:38.460Z,41.38
2019-06-08T17:46:07.954Z,41.25
2019-06-08T17:48:38.589Z,41.36
2019-06-08T17:51:08.164Z,41.04
2019-06-08T17:53:39.011Z,41.12
2019-06-08T17:56:08.594Z,41.06
2019-06-08T17:58:39.295Z,40.83
2019-06-08T18:01:09.302Z,41.07
2019-06-08T18:03:41.026Z,40.52
2019-06-08T18:06:09.939Z,40.86
2019-06-08T18:08:41.971Z,41.37
2019-06-08T18:11:11.820Z,41.25
2019-06-08T18:13:43.805Z,40.86
2019-06-08T18:16:12.525Z,41.13
2019-06-08T18:18:45.293Z,41.62
2019-06-08T18:21:17.569Z,41.18
2019-06-08T18:23:48.192Z,40.83
2019-06-08T18:26:17.639Z,40.95
2019-06-08T18:28:48.585Z,40.75
2019-06-08T18:31:18.440Z,41.01
2019-06-08T18:33:50.362Z,40.16
2019-06-08T18:36:18.993Z,40.13
2019-06-08T18:38:48.727Z,40.04
2019-06-08T18:41:18.165Z,43.00
2019-06-08T18:43:49.557Z,44.01
2019-06-08T18:46:18.941Z,45.13
2019-06-08T18:48:49.331Z,45.30
2019-06-08T18:51:19.029Z,45.80
2019-06-08T18:54:06.679Z,46.53
2019-06-08T18:56:19.934Z,46.22
2019-06-08T18:58:53.538Z,45.65
2019-06-08T19:01:22.984Z,45.65
2019-06-08T19:03:52.925Z,45.50
2019-06-08T19:06:22.910Z,45.45
2019-06-08T19:08:53.387Z,45.59
2019-06-08T19:11:22.749Z,45.88
2019-06-08T19:13:52.663Z,46.13
2019-06-08T19:16:23.311Z,46.68
2019-06-08T19:18:52.994Z,46.63
2019-06-08T19:21:22.482Z,47.52
2019-06-08T19:23:52.195Z,47.81
2019-06-08T19:26:21.986Z,47.97
2019-06-08T19:28:54.191Z,48.35
2019-06-08T19:31:23.908Z,48.53
2019-06-08T19:33:53.646Z,48.89
2019-06-08T19:36:23.081Z,49.18
2019-06-08T19:38:54.768Z,49.58
2019-06-08T19:41:23.691Z,49.70
2019-06-08T19:43:55.019Z,49.74
2019-06-08T19:46:26.999Z,50.11
2019-06-08T19:48:58.731Z,49.42
2019-06-08T19:51:27.871Z,49.20
2019-06-08T19:53:58.540Z,49.38
2019-06-08T19:56:28.821Z,49.37
2019-06-08T19:59:03.949Z,49.44
2019-06-08T20:01:30.540Z,49.19
2019-06-08T20:04:01.314Z,49.10
2019-06-08T20:06:31.023Z,48.97
2019-06-08T20:09:00.630Z,48.86
2019-06-08T20:11:30.506Z,48.46
2019-06-08T20:14:00.878Z,48.08
2019-06-08T20:16:30.862Z,48.08
2019-06-08T20:19:00.736Z,48.15
2019-06-08T20:21:30.952Z,47.89
2019-06-08T20:24:00.568Z,47.59
2019-06-08T20:26:30.570Z,47.33
2019-06-08T20:29:12.299Z,46.92
2019-06-08T20:31:32.248Z,46.92
2019-06-08T20:34:01.726Z,46.98
2019-06-08T20:36:31.185Z,46.72
2019-06-08T20:39:00.742Z,46.39
2019-06-08T20:41:30.476Z,46.79
2019-06-08T20:44:00.480Z,46.85
2019-06-08T20:46:30.677Z,47.15
2019-06-08T20:49:01.116Z,47.17
2019-06-08T20:51:30.536Z,46.91
2019-06-08T20:54:00.911Z,47.68
2019-06-08T20:56:31.356Z,47.30
2019-06-08T20:59:00.877Z,47.07
2019-06-08T21:01:31.083Z,47.07
2019-06-08T21:04:00.607Z,47.38
2019-06-08T21:06:30.535Z,47.33
2019-06-08T21:09:00.710Z,47.87
2019-06-08T21:11:30.956Z,47.94
2019-06-08T21:14:00.709Z,48.29
2019-06-08T21:16:30.696Z,48.29
2019-06-08T21:19:00.919Z,48.53
2019-06-08T21:21:30.614Z,49.00
2019-06-08T21:24:01.403Z,49.06
2019-06-08T21:26:30.956Z,49.23
2019-06-08T21:29:01.375Z,49.04
2019-06-08T21:31:30.967Z,49.20
2019-06-08T21:34:01.090Z,49.38
2019-06-08T21:36:30.565Z,49.74
2019-06-08T21:39:02.626Z,50.07
2019-06-08T21:41:32.265Z,49.35
2019-06-08T21:44:02.265Z,49.17
2019-06-08T21:46:32.173Z,49.54
2019-06-08T21:49:01.594Z,49.81
2019-06-08T21:51:31.026Z,49.74
2019-06-08T21:54:00.677Z,49.96
2019-06-08T21:56:30.754Z,50.03
2019-06-08T21:59:01.102Z,50.13
2019-06-08T22:01:32.750Z,50.14
2019-06-08T22:04:02.540Z,49.80
2019-06-08T22:06:31.997Z,50.01
2019-06-08T22:09:02.953Z,49.85
2019-06-08T22:11:32.890Z,49.94
2019-06-08T22:14:03.109Z,49.93
2019-06-08T22:16:34.409Z,49.86
2019-06-08T22:19:04.406Z,50.05
2019-06-08T22:21:33.888Z,50.24
2019-06-08T22:24:03.660Z,50.48
2019-06-08T22:26:33.132Z,50.42
2019-06-08T22:29:03.705Z,50.27
2019-06-08T22:31:33.456Z,50.59
2019-06-08T22:34:04.049Z,50.41
2019-06-08T22:36:33.655Z,50.44
2019-06-08T22:39:03.822Z,50.40
2019-06-08T22:41:33.311Z,50.22
2019-06-08T22:44:03.182Z,50.00
2019-06-08T22:46:32.712Z,50.06
2019-06-08T22:49:02.893Z,50.43
2019-06-08T22:51:33.454Z,50.40
2019-06-08T22:54:04.036Z,50.43
2019-06-08T22:56:33.593Z,50.27
2019-06-08T22:59:04.711Z,50.11
2019-06-08T23:01:34.278Z,50.50
2019-06-08T23:04:05.563Z,49.96
2019-06-08T23:06:34.848Z,50.08
2019-06-08T23:09:08.479Z,50.11
2019-06-08T23:11:37.652Z,50.30
2019-06-08T23:14:13.100Z,50.48
2019-06-08T23:16:38.673Z,50.77
2019-06-08T23:19:08.192Z,51.04
2019-06-08T23:21:38.306Z,51.54
2019-06-08T23:24:08.654Z,51.74
2019-06-08T23:26:40.955Z,51.81
2019-06-08T23:29:10.420Z,52.30
2019-06-08T23:31:40.017Z,52.62
2019-06-08T23:34:11.424Z,52.50
2019-06-08T23:36:52.063Z,53.14
2019-06-08T23:39:13.010Z,53.04
2019-06-08T23:41:42.559Z,53.04
2019-06-08T23:44:12.260Z,53.28
2019-06-08T23:46:41.835Z,53.26
2019-06-08T23:49:11.339Z,53.39
2019-06-08T23:51:41.151Z,53.58
2019-06-08T23:54:12.505Z,53.90
2019-06-08T23:56:41.977Z,54.31
2019-06-08T23:59:11.419Z,54.03
